Time;durP1;ratioP1;P1;durP2;ratioP2;P2;SDS_P1;SDS_P2;PMS_P1;PMS_P2;Temp;Humidity;BMP_temperature;BMP_pressure;BME280_temperature;BME280_humidity;BME280_pressure;Samples;Min_cycle;Max_cycle;Signal;HPM_P1;HPM_P2
2022/04/01 00:00:06;;;;;;;;;;;;;;;;;;5034283;28;19905;-50
2022/04/01 00:02:32;;;;;;;;;;;;;;;;;;5033992;28;19960;-50
2022/04/01 00:04:58;;;;;;;;;;;;;;;;;;5034473;28;19905;-50
2022/04/01 00:07:24;;;;;;;;;;;;;;;;;;5034187;28;19912;-50
2022/04/01 00:09:50;;;;;;;;;;;;;;;;;;5034296;28;19912;-51
2022/04/01 00:12:16;;;;;;;;;;;;;;;;;;5034225;28;19913;-51
2022/04/01 00:14:42;;;;;;;;;;;;;;;;;;5033969;28;19928;-48
2022/04/01 00:17:07;;;;;;;;;;;;;;;;;;5033996;28;19905;-50
2022/04/01 00:19:33;;;;;;;;;;;;;;;;;;5033976;28;19905;-50
2022/04/01 00:21:59;;;;;;;;;;;;;;;;;;5033807;28;20333;-50
2022/04/01 00:24:25;;;;;;;;;;;;;;;;;;5033910;28;19905;-50
2022/04/01 00:26:51;;;;;;;;;;;;;;;;;;5033718;28;19971;-50
2022/04/01 00:29:17;;;;;;;;;;;;;;;;;;5033707;28;19905;-52
2022/04/01 00:31:43;;;;;;;;;;;;;;;;;;5033635;28;19913;-49
2022/04/01 00:34:15;;;;;;;;;;;;;;;;;;5033626;28;20383;-50
2022/04/01 00:36:41;;;;;;;;;;;;;;;;;;5033544;28;20568;-49
2022/04/01 00:39:07;;;;;;;;;;;;;;;;;;5033563;28;20003;-50
2022/04/01 00:41:32;;;;;;;;;;;;;;;;;;5033485;28;19905;-49
2022/04/01 00:43:58;;;;;;;;;;;;;;;;;;5032716;28;19958;-49
2022/04/01 00:46:24;;;;;;;;;;;;;;;;;;5033375;28;19905;-50
2022/04/01 00:48:50;;;;;;;;;;;;;;;;;;5033271;28;19986;-51
2022/04/01 00:51:19;;;;;;;;;;;;;;;;;;5033166;28;20023;-54
2022/04/01 00:53:45;;;;;;;;;;;;;;;;;;5033298;28;19905;-54
2022/04/01 00:56:11;;;;;;;;;;;;;;;;;;5033199;28;20302;-54
2022/04/01 00:58:37;;;;;;;;;;;;;;;;;;5033231;28;19909;-45
2022/04/01 01:01:03;;;;;;;;;;;;;;;;;;5033122;28;20004;-46
2022/04/01 01:03:29;;;;;;;;;;;;;;;;;;5032915;28;19970;-46
2022/04/01 01:05:56;;;;;;;;;;;;;;;;;;5033073;28;19905;-45
2022/04/01 01:08:22;;;;;;;;;;;;;;;;;;5033068;28;19966;-45
2022/04/01 01:10:48;;;;;;;;;;;;;;;;;;5032905;28;19909;-45
2022/04/01 01:13:14;;;;;;;;;;;;;;;;;;5032975;28;19905;-48
2022/04/01 01:15:40;;;;;;;;;;;;;;;;;;5032893;28;20063;-45
2022/04/01 01:18:05;;;;;;;;;;;;;;;;;;5033005;28;19905;-50
2022/04/01 01:20:31;;;;;;;;;;;;;;;;;;5032855;28;19909;-50
2022/04/01 01:22:57;;;;;;;;;;;;;;;;;;5032731;28;19905;-50
2022/04/01 01:25:23;;;;;;;;;;;;;;;;;;5032697;28;19975;-49
2022/04/01 01:27:49;;;;;;;;;;;;;;;;;;5032676;28;20385;-49
2022/04/01 01:30:15;;;;;;;;;;;;;;;;;;5032570;28;19905;-50
2022/04/01 01:32:41;;;;;;;;;;;;;;;;;;5033002;28;19952;-51
2022/04/01 01:35:08;;;;;;;;;;;;;;;;;;5032619;28;20371;-49
2022/04/01 01:37:34;;;;;;;;;;;;;;;;;;5032911;28;19909;-49
2022/04/01 01:39:59;;;;;;;;;;;;;;;;;;5032527;28;19974;-51
2022/04/01 01:42:25;;;;;;;;;;;;;;;;;;5032558;28;19905;-49
2022/04/01 01:44:51;;;;;;;;;;;;;;;;;;5032498;28;19909;-50
2022/04/01 01:47:17;;;;;;;;;;;;;;;;;;5032487;28;19905;-51
2022/04/01 01:54:42;;;;;;;;;;;;;;;;;;5032765;28;20056;-48
2022/04/01 01:55:13;;;;;;;;;;;;;;;;;;5033787;28;19912;-50
2022/04/01 01:57:39;;;;;;;;;;;;;;;;;;5036544;28;20291;-51
2022/04/01 02:00:10;;;;;;;;;;;;;;;;;;5036475;28;19992;-50
2022/04/01 02:02:36;;;;;;;;;;;;;;;;;;5036403;28;19917;-50
2022/04/01 02:05:02;;;;;;;;;;;;;;;;;;5036380;28;19913;-50
2022/04/01 02:07:28;;;;;;;;;;;;;;;;;;5036387;28;19959;-49
2022/04/01 02:09:54;;;;;;;;;;;;;;;;;;5036355;28;19905;-50
2022/04/01 02:12:20;;;;;;;;;;;;;;;;;;5036214;28;19913;-52
2022/04/01 02:14:46;;;;;;;;;;;;;;;;;;5036371;28;20283;-53
2022/04/01 02:17:12;;;;;;;;;;;;;;;;;;5036477;28;19917;-50
2022/04/01 02:19:38;;;;;;;;;;;;;;;;;;5036159;28;19909;-51
2022/04/01 02:22:05;;;;;;;;;;;;;;;;;;5036108;28;19974;-50
2022/04/01 02:24:31;;;;;;;;;;;;;;;;;;5036374;28;19905;-52
2022/04/01 02:26:57;;;;;;;;;;;;;;;;;;5036083;28;20379;-53
2022/04/01 02:29:23;;;;;;;;;;;;;;;;;;5035915;28;19966;-51
2022/04/01 02:31:50;;;;;;;;;;;;;;;;;;5036197;28;19924;-46
2022/04/01 02:34:16;;;;;;;;;;;;;;;;;;5035908;28;19911;-45
2022/04/01 02:36:43;;;;;;;;;;;;;;;;;;5035896;28;20300;-45
2022/04/01 02:39:08;;;;;;;;;;;;;;;;;;5036101;28;19905;-47
2022/04/01 02:41:35;;;;;;;;;;;;;;;;;;5035772;28;19905;-45
2022/04/01 02:44:12;;;;;;;;;;;;;;;;;;5035743;28;19905;-45
2022/04/01 02:46:37;;;;;;;;;;;;;;;;;;5036015;28;19914;-46
2022/04/01 02:49:06;;;;;;;;;;;;;;;;;;5035752;28;19913;-46
2022/04/01 02:51:32;;;;;;;;;;;;;;;;;;5035816;28;19917;-46
2022/04/01 02:53:58;;;;;;;;;;;;;;;;;;5035462;28;19951;-45
2022/04/01 02:56:24;;;;;;;;;;;;;;;;;;5035472;28;19905;-46
2022/04/01 02:58:49;;;;;;;;;;;;;;;;;;5035490;28;19909;-45
2022/04/01 03:01:15;;;;;;;;;;;;;;;;;;5035359;28;20158;-45
2022/04/01 03:03:41;;;;;;;;;;;;;;;;;;5035216;28;19921;-45
2022/04/01 03:06:07;;;;;;;;;;;;;;;;;;5034809;28;20003;-51
2022/04/01 03:08:33;;;;;;;;;;;;;;;;;;5035044;28;19940;-45
2022/04/01 03:10:59;;;;;;;;;;;;;;;;;;5035205;28;19940;-46
2022/04/01 03:13:25;;;;;;;;;;;;;;;;;;5035194;28;19909;-46
2022/04/01 03:15:51;;;;;;;;;;;;;;;;;;5035177;28;20395;-46
2022/04/01 03:18:17;;;;;;;;;;;;;;;;;;5035079;28;19950;-45
2022/04/01 03:20:45;;;;;;;;;;;;;;;;;;5035007;28;19905;-47
2022/04/01 03:23:11;;;;;;;;;;;;;;;;;;5034975;28;19904;-45
2022/04/01 03:25:37;;;;;;;;;;;;;;;;;;5034865;28;19905;-45
2022/04/01 03:28:04;;;;;;;;;;;;;;;;;;5034832;28;19951;-46
2022/04/01 03:30:29;;;;;;;;;;;;;;;;;;5034734;28;20410;-45
2022/04/01 03:32:55;;;;;;;;;;;;;;;;;;5034843;28;20181;-45
2022/04/01 03:35:21;;;;;;;;;;;;;;;;;;5034962;28;19909;-45
2022/04/01 03:37:49;;;;;;;;;;;;;;;;;;5034666;28;20283;-46
2022/04/01 03:40:15;;;;;;;;;;;;;;;;;;5034632;28;19909;-45
2022/04/01 03:42:41;;;;;;;;;;;;;;;;;;5034507;28;19927;-45
2022/04/01 03:45:07;;;;;;;;;;;;;;;;;;5034854;28;19905;-51
2022/04/01 03:47:32;;;;;;;;;;;;;;;;;;5034731;28;20208;-50
2022/04/01 03:49:58;;;;;;;;;;;;;;;;;;5034426;28;20003;-49
2022/04/01 03:52:24;;;;;;;;;;;;;;;;;;5034335;28;19913;-50
2022/04/01 03:54:50;;;;;;;;;;;;;;;;;;5034348;28;20375;-50
2022/04/01 03:57:16;;;;;;;;;;;;;;;;;;5034323;28;19905;-50
2022/04/01 03:59:44;;;;;;;;;;;;;;;;;;5034248;28;19905;-48
2022/04/01 04:02:11;;;;;;;;;;;;;;;;;;5034051;28;19927;-50
2022/04/01 04:04:37;;;;;;;;;;;;;;;;;;5034557;28;19913;-50
2022/04/01 04:07:03;;;;;;;;;;;;;;;;;;5034200;28;20007;-50
2022/04/01 04:09:28;;;;;;;;;;;;;;;;;;5034407;28;19951;-50
2022/04/01 04:11:54;;;;;;;;;;;;;;;;;;5033985;28;19912;-50
2022/04/01 04:14:20;;;;;;;;;;;;;;;;;;5034252;28;19936;-50
2022/04/01 04:16:46;;;;;;;;;;;;;;;;;;5033988;28;19917;-52
2022/04/01 04:19:12;;;;;;;;;;;;;;;;;;5033734;28;19905;-50
2022/04/01 04:21:38;;;;;;;;;;;;;;;;;;5033859;28;19912;-46
2022/04/01 04:24:04;;;;;;;;;;;;;;;;;;5033758;28;19960;-46
2022/04/01 04:26:30;;;;;;;;;;;;;;;;;;5033694;28;19905;-45
2022/04/01 04:28:56;;;;;;;;;;;;;;;;;;5033945;28;20337;-45
2022/04/01 04:31:22;;;;;;;;;;;;;;;;;;5033493;28;19920;-46
2022/04/01 04:33:48;;;;;;;;;;;;;;;;;;5033563;28;20357;-45
2022/04/01 04:36:14;;;;;;;;;;;;;;;;;;5033854;28;20051;-45
2022/04/01 04:38:40;;;;;;;;;;;;;;;;;;5033524;28;20451;-45
2022/04/01 04:41:08;;;;;;;;;;;;;;;;;;5033659;28;19905;-46
2022/04/01 04:43:34;;;;;;;;;;;;;;;;;;5033674;28;19905;-47
2022/04/01 04:46:00;;;;;;;;;;;;;;;;;;5033399;28;19905;-46
2022/04/01 04:48:27;;;;;;;;;;;;;;;;;;5033424;28;19905;-46
2022/04/01 04:50:53;;;;;;;;;;;;;;;;;;5033264;28;19955;-45
2022/04/01 04:53:19;;;;;;;;;;;;;;;;;;5033520;28;20288;-46
2022/04/01 04:55:45;;;;;;;;;;;;;;;;;;5033224;28;20000;-45
2022/04/01 04:58:11;;;;;;;;;;;;;;;;;;5033279;28;20433;-51
2022/04/01 05:00:37;;;;;;;;;;;;;;;;;;5033176;28;19966;-52
2022/04/01 05:03:06;;;;;;;;;;;;;;;;;;5032943;28;20004;-50
2022/04/01 05:05:32;;;;;;;;;;;;;;;;;;5033123;28;19974;-52
2022/04/01 05:07:58;;;;;;;;;;;;;;;;;;5033041;28;20435;-51
2022/04/01 05:10:24;;;;;;;;;;;;;;;;;;5032927;28;19912;-52
2022/04/01 05:12:51;;;;;;;;;;;;;;;;;;5032939;28;19968;-50
2022/04/01 05:15:17;;;;;;;;;;;;;;;;;;5033109;28;19920;-45
2022/04/01 05:17:43;;;;;;;;;;;;;;;;;;5032944;28;20359;-44
2022/04/01 05:20:15;;;;;;;;;;;;;;;;;;5032799;28;19905;-45
2022/04/01 05:22:41;;;;;;;;;;;;;;;;;;5033157;28;19905;-45
2022/04/01 05:25:07;;;;;;;;;;;;;;;;;;5032678;28;20295;-46
2022/04/01 05:27:32;;;;;;;;;;;;;;;;;;5032907;28;19905;-45
2022/04/01 05:29:58;;;;;;;;;;;;;;;;;;5032215;28;19974;-46
2022/04/01 05:32:24;;;;;;;;;;;;;;;;;;5033016;28;19913;-45
2022/04/01 05:34:51;;;;;;;;;;;;;;;;;;5032751;28;20368;-51
2022/04/01 05:37:16;;;;;;;;;;;;;;;;;;5032931;28;19905;-53
2022/04/01 05:39:42;;;;;;;;;;;;;;;;;;5032557;28;19928;-48
2022/04/01 05:42:08;;;;;;;;;;;;;;;;;;5032419;28;19905;-51
2022/04/01 05:44:34;;;;;;;;;;;;;;;;;;5032429;28;19905;-52
2022/04/01 05:47:00;;;;;;;;;;;;;;;;;;5032370;28;19927;-51
2022/04/01 05:49:26;;;;;;;;;;;;;;;;;;5032403;28;19995;-54
2022/04/01 05:51:52;;;;;;;;;;;;;;;;;;5032521;28;20016;-47
2022/04/01 05:54:21;;;;;;;;;;;;;;;;;;5032622;28;19912;-53
2022/04/01 05:56:47;;;;;;;;;;;;;;;;;;5032681;28;19912;-49
2022/04/01 05:59:13;;;;;;;;;;;;;;;;;;5032392;28;19905;-50
2022/04/01 06:01:40;;;;;;;;;;;;;;;;;;5032500;28;19913;-51
2022/04/01 06:04:06;;;;;;;;;;;;;;;;;;5032205;28;19917;-52
2022/04/01 06:06:32;;;;;;;;;;;;;;;;;;5032383;28;19955;-48
2022/04/01 06:08:58;;;;;;;;;;;;;;;;;;5032164;28;19905;-49
2022/04/01 06:11:24;;;;;;;;;;;;;;;;;;5032346;28;20369;-53
2022/04/01 06:13:50;;;;;;;;;;;;;;;;;;5032491;28;19911;-51
2022/04/01 06:16:16;;;;;;;;;;;;;;;;;;5032086;28;20257;-53
2022/04/01 06:18:44;;;;;;;;;;;;;;;;;;5032459;28;19981;-48
2022/04/01 06:21:10;;;;;;;;;;;;;;;;;;5032012;28;19905;-49
2022/04/01 06:23:36;;;;;;;;;;;;;;;;;;5032134;28;19905;-50
2022/04/01 06:26:02;;;;;;;;;;;;;;;;;;5031990;28;19959;-49
2022/04/01 06:28:27;;;;;;;;;;;;;;;;;;5032020;28;19905;-47
2022/04/01 06:30:53;;;;;;;;;;;;;;;;;;5031921;28;19916;-51
2022/04/01 06:33:19;;;;;;;;;;;;;;;;;;5032044;28;19915;-51
2022/04/01 06:35:45;;;;;;;;;;;;;;;;;;5032150;28;20000;-53
2022/04/01 06:38:11;;;;;;;;;;;;;;;;;;5031908;28;19909;-52
2022/04/01 06:40:37;;;;;;;;;;;;;;;;;;5032182;28;19956;-52
2022/04/01 06:43:04;;;;;;;;;;;;;;;;;;5035886;28;19912;-52
2022/04/01 06:45:30;;;;;;;;;;;;;;;;;;5035768;28;19992;-51
2022/04/01 06:47:56;;;;;;;;;;;;;;;;;;5035733;28;20446;-47
2022/04/01 06:50:22;;;;;;;;;;;;;;;;;;5035718;28;19909;-46
2022/04/01 06:52:48;;;;;;;;;;;;;;;;;;5035747;28;19913;-46
2022/04/01 06:55:14;;;;;;;;;;;;;;;;;;5035814;28;20160;-45
2022/04/01 06:57:40;;;;;;;;;;;;;;;;;;5035770;28;20290;-45
2022/04/01 07:00:06;;;;;;;;;;;;;;;;;;5035597;28;19905;-46
2022/04/01 07:02:33;;;;;;;;;;;;;;;;;;5035557;28;19917;-47
2022/04/01 07:05:00;;;;;;;;;;;;;;;;;;5035504;28;19950;-46
2022/04/01 07:07:26;;;;;;;;;;;;;;;;;;5035367;28;19950;-45
2022/04/01 07:09:52;;;;;;;;;;;;;;;;;;5035454;28;19992;-45
2022/04/01 07:12:18;;;;;;;;;;;;;;;;;;5035308;28;19919;-45
2022/04/01 07:14:44;;;;;;;;;;;;;;;;;;5035352;28;20320;-44
2022/04/01 07:17:10;;;;;;;;;;;;;;;;;;5035245;28;20348;-47
2022/04/01 07:19:36;;;;;;;;;;;;;;;;;;5035159;28;19959;-44
2022/04/01 07:22:02;;;;;;;;;;;;;;;;;;5035186;28;19944;-45
2022/04/01 07:24:30;;;;;;;;;;;;;;;;;;5035205;28;19904;-45
2022/04/01 07:26:56;;;;;;;;;;;;;;;;;;5035553;28;19936;-45
2022/04/01 07:29:22;;;;;;;;;;;;;;;;;;5035037;28;20390;-45
2022/04/01 07:34:33;;;;;;;;;;;;;;;;;;5035290;28;19958;-44
2022/04/01 07:36:59;;;;;;;;;;;;;;;;;;5035228;28;19967;-45
2022/04/01 07:39:25;;;;;;;;;;;;;;;;;;5035027;28;19987;-44
2022/04/01 07:41:51;;;;;;;;;;;;;;;;;;5034817;28;19952;-44
2022/04/01 07:44:17;;;;;;;;;;;;;;;;;;5035121;28;19981;-45
2022/04/01 07:46:42;;;;;;;;;;;;;;;;;;5034720;28;20364;-45
2022/04/01 07:49:08;;;;;;;;;;;;;;;;;;5034650;28;19951;-46
2022/04/01 07:51:35;;;;;;;;;;;;;;;;;;5034568;28;19908;-44
2022/04/01 07:54:01;;;;;;;;;;;;;;;;;;5034333;28;19905;-45
2022/04/01 07:56:30;;;;;;;;;;;;;;;;;;5034478;28;19905;-44
2022/04/01 07:58:56;;;;;;;;;;;;;;;;;;5034419;28;20394;-46
2022/04/01 08:01:22;;;;;;;;;;;;;;;;;;5034352;28;19905;-46
2022/04/01 08:03:48;;;;;;;;;;;;;;;;;;5034317;28;19940;-45
2022/04/01 08:06:14;;;;;;;;;;;;;;;;;;5034315;28;19981;-47
2022/04/01 08:08:40;;;;;;;;;;;;;;;;;;5034386;28;19960;-45
2022/04/01 08:11:06;;;;;;;;;;;;;;;;;;5034291;28;19991;-45
2022/04/01 08:13:32;;;;;;;;;;;;;;;;;;5034214;28;20367;-45
2022/04/01 08:15:58;;;;;;;;;;;;;;;;;;5034506;28;19905;-45
2022/04/01 08:18:24;;;;;;;;;;;;;;;;;;5034188;28;19905;-46
2022/04/01 08:20:50;;;;;;;;;;;;;;;;;;5034265;28;20000;-45
2022/04/01 08:23:16;;;;;;;;;;;;;;;;;;5033983;28;19909;-45
2022/04/01 08:25:42;;;;;;;;;;;;;;;;;;5033855;28;19951;-45
2022/04/01 08:28:08;;;;;;;;;;;;;;;;;;5033708;28;19905;-45
2022/04/01 08:30:34;;;;;;;;;;;;;;;;;;5033559;28;19905;-45
2022/04/01 08:33:00;;;;;;;;;;;;;;;;;;5033681;28;19909;-45
2022/04/01 08:35:26;;;;;;;;;;;;;;;;;;5033808;28;19932;-46
2022/04/01 08:37:55;;;;;;;;;;;;;;;;;;5033742;28;19909;-50
2022/04/01 08:40:21;;;;;;;;;;;;;;;;;;5033814;28;19912;-51
2022/04/01 08:42:47;;;;;;;;;;;;;;;;;;5034012;28;19996;-49
2022/04/01 08:45:12;;;;;;;;;;;;;;;;;;5033716;28;19912;-49
2022/04/01 08:47:39;;;;;;;;;;;;;;;;;;5033699;28;20318;-49
2022/04/01 08:50:04;;;;;;;;;;;;;;;;;;5033621;28;19905;-50
2022/04/01 08:52:30;;;;;;;;;;;;;;;;;;5033485;28;19913;-50
2022/04/01 08:54:56;;;;;;;;;;;;;;;;;;5033456;28;19955;-48
2022/04/01 08:57:23;;;;;;;;;;;;;;;;;;5033511;28;19910;-48
2022/04/01 08:59:49;;;;;;;;;;;;;;;;;;5033679;28;20359;-50
2022/04/01 09:02:15;;;;;;;;;;;;;;;;;;5033172;28;19940;-50
2022/04/01 09:04:41;;;;;;;;;;;;;;;;;;5032755;28;19909;-48
2022/04/01 09:07:07;;;;;;;;;;;;;;;;;;5031926;28;19912;-49
2022/04/01 09:09:32;;;;;;;;;;;;;;;;;;5033504;28;19905;-50
2022/04/01 09:11:58;;;;;;;;;;;;;;;;;;5033036;28;19959;-49
2022/04/01 09:14:24;;;;;;;;;;;;;;;;;;5033204;28;19905;-45
2022/04/01 09:16:50;;;;;;;;;;;;;;;;;;5033093;28;19905;-49
2022/04/01 09:19:16;;;;;;;;;;;;;;;;;;5033017;28;19999;-48
2022/04/01 09:21:44;;;;;;;;;;;;;;;;;;5033041;28;20375;-50
2022/04/01 09:24:10;;;;;;;;;;;;;;;;;;5031684;28;19905;-49
2022/04/01 09:26:37;;;;;;;;;;;;;;;;;;5032941;28;20343;-48
2022/04/01 09:29:03;;;;;;;;;;;;;;;;;;5033196;28;19920;-52
2022/04/01 09:31:29;;;;;;;;;;;;;;;;;;5032824;28;19917;-50
2022/04/01 09:33:55;;;;;;;;;;;;;;;;;;5032872;28;19913;-50
2022/04/01 09:36:21;;;;;;;;;;;;;;;;;;5032855;28;19948;-49
2022/04/01 09:38:47;;;;;;;;;;;;;;;;;;5033045;28;20011;-51
2022/04/01 09:41:14;;;;;;;;;;;;;;;;;;5032696;28;19951;-51
2022/04/01 09:43:39;;;;;;;;;;;;;;;;;;5032802;28;19937;-49
2022/04/01 09:46:05;;;;;;;;;;;;;;;;;;5032657;28;20402;-49
2022/04/01 09:48:31;;;;;;;;;;;;;;;;;;5032967;28;19909;-50
2022/04/01 09:50:59;;;;;;;;;;;;;;;;;;5032572;28;19909;-45
2022/04/01 09:53:25;;;;;;;;;;;;;;;;;;5033063;28;19905;-46
2022/04/01 09:55:51;;;;;;;;;;;;;;;;;;5032638;28;19963;-47
2022/04/01 09:58:17;;;;;;;;;;;;;;;;;;5032525;28;19976;-46
2022/04/01 10:00:43;;;;;;;;;;;;;;;;;;5032642;28;19905;-45
2022/04/01 10:03:09;;;;;;;;;;;;;;;;;;5032217;28;19917;-45
2022/04/01 10:05:35;;;;;;;;;;;;;;;;;;5032533;28;20206;-45
2022/04/01 10:08:01;;;;;;;;;;;;;;;;;;5032441;28;19996;-45
2022/04/01 10:10:27;;;;;;;;;;;;;;;;;;5032661;28;19909;-46
2022/04/01 10:12:53;;;;;;;;;;;;;;;;;;5032756;28;20287;-45
2022/04/01 10:15:19;;;;;;;;;;;;;;;;;;5032644;28;19905;-45
2022/04/01 10:17:45;;;;;;;;;;;;;;;;;;5036212;28;19905;-46
2022/04/01 10:20:10;;;;;;;;;;;;;;;;;;5036364;28;20360;-45
2022/04/01 10:22:36;;;;;;;;;;;;;;;;;;5036345;28;19995;-45
2022/04/01 10:25:03;;;;;;;;;;;;;;;;;;5036303;28;19959;-45
2022/04/01 10:27:29;;;;;;;;;;;;;;;;;;5036603;28;20008;-46
2022/04/01 10:29:54;;;;;;;;;;;;;;;;;;5036176;28;19959;-49
2022/04/01 10:32:21;;;;;;;;;;;;;;;;;;5036054;28;19913;-50
2022/04/01 10:34:46;;;;;;;;;;;;;;;;;;5036148;28;19905;-49
2022/04/01 10:37:14;;;;;;;;;;;;;;;;;;5036089;28;19959;-50
2022/04/01 10:39:39;;;;;;;;;;;;;;;;;;5036171;28;19905;-48
2022/04/01 10:42:06;;;;;;;;;;;;;;;;;;5036034;28;19905;-49
2022/04/01 10:44:31;;;;;;;;;;;;;;;;;;5035991;28;20287;-49
2022/04/01 10:46:58;;;;;;;;;;;;;;;;;;5035914;28;19905;-53
2022/04/01 10:52:08;;;;;;;;;;;;;;;;;;5035855;28;19935;-51
2022/04/01 10:54:34;;;;;;;;;;;;;;;;;;5035799;28;20426;-51
2022/04/01 10:57:01;;;;;;;;;;;;;;;;;;5035771;28;19913;-49
2022/04/01 10:59:27;;;;;;;;;;;;;;;;;;5035733;28;20356;-50
2022/04/01 11:01:52;;;;;;;;;;;;;;;;;;5035597;28;19905;-50
2022/04/01 11:04:18;;;;;;;;;;;;;;;;;;5035555;28;20402;-49
2022/04/01 11:06:44;;;;;;;;;;;;;;;;;;5035661;28;19905;-50
2022/04/01 11:09:10;;;;;;;;;;;;;;;;;;5035494;28;19966;-49
2022/04/01 11:11:36;;;;;;;;;;;;;;;;;;5035347;28;20446;-48
2022/04/01 11:14:02;;;;;;;;;;;;;;;;;;5035641;28;19955;-49
2022/04/01 11:16:28;;;;;;;;;;;;;;;;;;5035559;28;20319;-49
2022/04/01 11:18:54;;;;;;;;;;;;;;;;;;5035316;28;19912;-49
2022/04/01 11:21:20;;;;;;;;;;;;;;;;;;5035209;28;20388;-49
2022/04/01 11:23:45;;;;;;;;;;;;;;;;;;5035213;28;19912;-46
2022/04/01 11:26:11;;;;;;;;;;;;;;;;;;5035463;28;19944;-46
2022/04/01 11:28:37;;;;;;;;;;;;;;;;;;5034238;28;19905;-46
2022/04/01 11:31:03;;;;;;;;;;;;;;;;;;5035077;28;19932;-46
2022/04/01 11:33:29;;;;;;;;;;;;;;;;;;5034988;28;19905;-46
2022/04/01 11:35:57;;;;;;;;;;;;;;;;;;5034999;28;19905;-45
2022/04/01 11:38:23;;;;;;;;;;;;;;;;;;5035239;28;20275;-45
2022/04/01 11:40:49;;;;;;;;;;;;;;;;;;5035154;28;19909;-45
2022/04/01 11:43:15;;;;;;;;;;;;;;;;;;5034840;28;19912;-49
2022/04/01 11:45:42;;;;;;;;;;;;;;;;;;5034836;28;20253;-48
2022/04/01 11:48:07;;;;;;;;;;;;;;;;;;5034808;28;19944;-51
2022/04/01 11:50:33;;;;;;;;;;;;;;;;;;5034641;28;19971;-49
2022/04/01 11:52:59;;;;;;;;;;;;;;;;;;5034631;28;19912;-49
2022/04/01 11:55:25;;;;;;;;;;;;;;;;;;5034443;28;19995;-49
2022/04/01 11:57:51;;;;;;;;;;;;;;;;;;5034443;28;20549;-49
2022/04/01 12:00:17;;;;;;;;;;;;;;;;;;5034414;28;19951;-50
2022/04/01 12:02:43;;;;;;;;;;;;;;;;;;5034302;28;19917;-49
2022/04/01 12:05:09;;;;;;;;;;;;;;;;;;5034383;28;20426;-49
2022/04/01 12:10:19;;;;;;;;;;;;;;;;;;5034323;28;19951;-50
2022/04/01 12:12:45;;;;;;;;;;;;;;;;;;5034139;28;20334;-50
2022/04/01 12:15:11;;;;;;;;;;;;;;;;;;5034123;28;20379;-51
2022/04/01 12:17:37;;;;;;;;;;;;;;;;;;5034169;28;19905;-49
2022/04/01 12:20:03;;;;;;;;;;;;;;;;;;5034162;28;19951;-50
2022/04/01 12:22:29;;;;;;;;;;;;;;;;;;5034073;28;19959;-49
2022/04/01 12:24:55;;;;;;;;;;;;;;;;;;5034006;28;19905;-49
2022/04/01 12:27:21;;;;;;;;;;;;;;;;;;5034179;28;19928;-50
2022/04/01 12:29:47;;;;;;;;;;;;;;;;;;5033847;28;19905;-53
2022/04/01 12:32:13;;;;;;;;;;;;;;;;;;5033827;28;19913;-50
2022/04/01 12:34:38;;;;;;;;;;;;;;;;;;5033800;28;19905;-49
2022/04/01 12:37:04;;;;;;;;;;;;;;;;;;5033855;28;20020;-45
2022/04/01 12:39:30;;;;;;;;;;;;;;;;;;5033605;28;19905;-46
2022/04/01 12:41:56;;;;;;;;;;;;;;;;;;5033745;28;20003;-45
2022/04/01 12:44:22;;;;;;;;;;;;;;;;;;5033937;28;19999;-47
2022/04/01 12:46:48;;;;;;;;;;;;;;;;;;5033626;28;19999;-45
2022/04/01 12:49:14;;;;;;;;;;;;;;;;;;5033636;28;19940;-46
2022/04/01 12:51:40;;;;;;;;;;;;;;;;;;5033846;28;20024;-44
2022/04/01 12:54:08;;;;;;;;;;;;;;;;;;5033508;28;20043;-45
2022/04/01 12:56:34;;;;;;;;;;;;;;;;;;5033540;28;19991;-45
2022/04/01 12:59:00;;;;;;;;;;;;;;;;;;5033435;28;19920;-45
2022/04/01 13:01:26;;;;;;;;;;;;;;;;;;5033294;28;20003;-47
2022/04/01 13:03:52;;;;;;;;;;;;;;;;;;5033123;28;19921;-48
2022/04/01 13:06:18;;;;;;;;;;;;;;;;;;5033464;28;19905;-46
2022/04/01 13:08:44;;;;;;;;;;;;;;;;;;5033494;28;20278;-46
2022/04/01 13:11:10;;;;;;;;;;;;;;;;;;5033149;28;19913;-46
2022/04/01 13:13:35;;;;;;;;;;;;;;;;;;5033237;28;20334;-51
2022/04/01 13:16:01;;;;;;;;;;;;;;;;;;5033172;28;19909;-52
2022/04/01 13:18:30;;;;;;;;;;;;;;;;;;5033119;28;19966;-52
2022/04/01 13:20:56;;;;;;;;;;;;;;;;;;5033074;28;20004;-53
2022/04/01 13:23:22;;;;;;;;;;;;;;;;;;5033041;28;20011;-50
2022/04/01 13:25:48;;;;;;;;;;;;;;;;;;5033218;28;19909;-55
2022/04/01 13:28:15;;;;;;;;;;;;;;;;;;5032978;28;19905;-51
2022/04/01 13:30:40;;;;;;;;;;;;;;;;;;5032817;28;19928;-49
2022/04/01 13:33:07;;;;;;;;;;;;;;;;;;5032929;28;20352;-50
2022/04/01 13:35:33;;;;;;;;;;;;;;;;;;5032897;28;19951;-51
2022/04/01 13:37:59;;;;;;;;;;;;;;;;;;5032678;28;19905;-51
2022/04/01 13:40:25;;;;;;;;;;;;;;;;;;5032706;28;19959;-50
2022/04/01 13:42:52;;;;;;;;;;;;;;;;;;5032621;28;20065;-52
2022/04/01 13:45:18;;;;;;;;;;;;;;;;;;5032792;28;20340;-53
2022/04/01 13:47:44;;;;;;;;;;;;;;;;;;5032664;28;19909;-50
2022/04/01 13:50:10;;;;;;;;;;;;;;;;;;5032495;28;19928;-50
2022/04/01 13:52:36;;;;;;;;;;;;;;;;;;5032332;28;20367;-47
2022/04/01 13:55:02;;;;;;;;;;;;;;;;;;5032589;28;19916;-46
2022/04/01 13:57:28;;;;;;;;;;;;;;;;;;5032617;28;19999;-47
2022/04/01 13:59:54;;;;;;;;;;;;;;;;;;5032499;28;20308;-45
2022/04/01 14:02:21;;;;;;;;;;;;;;;;;;5032212;28;20006;-46
2022/04/01 14:04:46;;;;;;;;;;;;;;;;;;5032414;28;19920;-47
2022/04/01 14:07:12;;;;;;;;;;;;;;;;;;5032366;28;20272;-47
2022/04/01 14:09:39;;;;;;;;;;;;;;;;;;5032522;28;19940;-49
2022/04/01 14:12:04;;;;;;;;;;;;;;;;;;5032407;28;20355;-50
2022/04/01 14:14:30;;;;;;;;;;;;;;;;;;5031147;28;19987;-50
2022/04/01 14:16:56;;;;;;;;;;;;;;;;;;5032363;28;19928;-50
2022/04/01 14:19:22;;;;;;;;;;;;;;;;;;5032402;28;19909;-50
2022/04/01 14:21:48;;;;;;;;;;;;;;;;;;5032386;28;19905;-54
2022/04/01 14:24:14;;;;;;;;;;;;;;;;;;5032627;28;20000;-51
2022/04/01 14:26:40;;;;;;;;;;;;;;;;;;5032644;28;19937;-49
2022/04/01 14:32:02;;;;;;;;;;;;;;;;;;5032308;28;19960;-50
2022/04/01 14:34:28;;;;;;;;;;;;;;;;;;5032139;28;19905;-51
2022/04/01 14:36:54;;;;;;;;;;;;;;;;;;5032220;28;20356;-52
2022/04/01 14:39:20;;;;;;;;;;;;;;;;;;5032090;28;19912;-52
2022/04/01 14:41:46;;;;;;;;;;;;;;;;;;5032081;28;19948;-52
2022/04/01 14:44:12;;;;;;;;;;;;;;;;;;5032143;28;20383;-52
2022/04/01 14:46:41;;;;;;;;;;;;;;;;;;5032172;28;19905;-54
2022/04/01 14:49:06;;;;;;;;;;;;;;;;;;5032095;28;19909;-54
2022/04/01 14:51:32;;;;;;;;;;;;;;;;;;5031880;28;20011;-49
2022/04/01 14:53:58;;;;;;;;;;;;;;;;;;5031966;28;19928;-50
2022/04/01 14:56:24;;;;;;;;;;;;;;;;;;5031894;28;20007;-52
2022/04/01 14:58:50;;;;;;;;;;;;;;;;;;5032005;28;19905;-50
2022/04/01 15:01:16;;;;;;;;;;;;;;;;;;5031802;28;19905;-51
2022/04/01 15:03:42;;;;;;;;;;;;;;;;;;5033630;28;20468;-50
2022/04/01 15:06:08;;;;;;;;;;;;;;;;;;5035630;28;19905;-53
2022/04/01 15:08:33;;;;;;;;;;;;;;;;;;5035458;28;19912;-54
2022/04/01 15:11:00;;;;;;;;;;;;;;;;;;5035306;28;19955;-52
2022/04/01 15:13:27;;;;;;;;;;;;;;;;;;5035593;28;19912;-49
2022/04/01 15:15:53;;;;;;;;;;;;;;;;;;5035573;28;20369;-54
2022/04/01 15:18:18;;;;;;;;;;;;;;;;;;5035615;28;19992;-51
2022/04/01 15:20:44;;;;;;;;;;;;;;;;;;5035288;28;20440;-51
2022/04/01 15:23:10;;;;;;;;;;;;;;;;;;5035225;28;19905;-49
2022/04/01 15:25:36;;;;;;;;;;;;;;;;;;5035421;28;20279;-50
2022/04/01 15:28:02;;;;;;;;;;;;;;;;;;5035100;28;19960;-55
2022/04/01 15:30:28;;;;;;;;;;;;;;;;;;5035152;28;20364;-52
2022/04/01 15:32:54;;;;;;;;;;;;;;;;;;5034974;28;19920;-50
2022/04/01 15:35:20;;;;;;;;;;;;;;;;;;5034957;28;19996;-51
2022/04/01 15:37:45;;;;;;;;;;;;;;;;;;5035006;28;19928;-51
2022/04/01 15:40:11;;;;;;;;;;;;;;;;;;5034733;28;19916;-50
2022/04/01 15:42:37;;;;;;;;;;;;;;;;;;5034893;28;20351;-54
2022/04/01 15:45:03;;;;;;;;;;;;;;;;;;5034739;28;19905;-52
2022/04/01 15:47:30;;;;;;;;;;;;;;;;;;5034334;28;20292;-55
2022/04/01 15:49:56;;;;;;;;;;;;;;;;;;5034359;28;20362;-54
2022/04/01 15:52:22;;;;;;;;;;;;;;;;;;5034310;28;19917;-55
2022/04/01 15:54:48;;;;;;;;;;;;;;;;;;5034350;28;19904;-54
2022/04/01 15:57:13;;;;;;;;;;;;;;;;;;5034362;28;19905;-50
2022/04/01 15:59:40;;;;;;;;;;;;;;;;;;5034495;28;19905;-46
2022/04/01 16:02:06;;;;;;;;;;;;;;;;;;5034398;28;20289;-47
2022/04/01 16:04:32;;;;;;;;;;;;;;;;;;5034204;28;19925;-46
2022/04/01 16:06:58;;;;;;;;;;;;;;;;;;5034382;28;19931;-46
2022/04/01 16:09:27;;;;;;;;;;;;;;;;;;5034311;28;20513;-47
2022/04/01 16:11:53;;;;;;;;;;;;;;;;;;5034168;28;19913;-46
2022/04/01 16:14:19;;;;;;;;;;;;;;;;;;5033816;28;20317;-46
2022/04/01 16:16:45;;;;;;;;;;;;;;;;;;5034433;28;19905;-46
2022/04/01 16:19:12;;;;;;;;;;;;;;;;;;5034194;28;19913;-47
2022/04/01 16:21:37;;;;;;;;;;;;;;;;;;5034060;28;19909;-46
2022/04/01 16:24:03;;;;;;;;;;;;;;;;;;5034128;28;19912;-46
2022/04/01 16:26:29;;;;;;;;;;;;;;;;;;5033978;28;19905;-47
2022/04/01 16:28:55;;;;;;;;;;;;;;;;;;5033812;28;19967;-47
2022/04/01 16:31:21;;;;;;;;;;;;;;;;;;5033747;28;19909;-46
2022/04/01 16:33:47;;;;;;;;;;;;;;;;;;5033971;28;19905;-49
2022/04/01 16:36:13;;;;;;;;;;;;;;;;;;5033785;28;19912;-46
2022/04/01 16:38:39;;;;;;;;;;;;;;;;;;5034039;28;19906;-46
2022/04/01 16:41:05;;;;;;;;;;;;;;;;;;5033998;28;19905;-46
2022/04/01 16:43:32;;;;;;;;;;;;;;;;;;5033642;28;19905;-47
2022/04/01 16:45:58;;;;;;;;;;;;;;;;;;5033544;28;19950;-46
2022/04/01 16:48:24;;;;;;;;;;;;;;;;;;5033564;28;19999;-46
2022/04/01 16:50:51;;;;;;;;;;;;;;;;;;5033451;28;19905;-47